Time;durP1;ratioP1;P1;durP2;ratioP2;P2;SDS_P1;SDS_P2;PMS_P1;PMS_P2;Temp;Humidity;BMP_temperature;BMP_pressure;BME280_temperature;BME280_humidity;BME280_pressure;Samples;Min_cycle;Max_cycle;Signal;HPM_P1;HPM_P2
2023/04/30 00:00:12;;;;;;;15.93;6.30;;;6.90;99.90;;;;;;5034838;28;20195;-83
2023/04/30 00:02:38;;;;;;;11.83;5.93;;;6.80;99.90;;;;;;5035001;28;20219;-82
2023/04/30 00:05:04;;;;;;;17.10;6.70;;;6.80;99.90;;;;;;5051999;28;20577;-83
2023/04/30 00:07:31;;;;;;;11.77;6.33;;;6.80;99.90;;;;;;5051355;28;20203;-84
2023/04/30 00:09:56;;;;;;;13.43;5.67;;;6.80;99.90;;;;;;5051594;28;20640;-83
2023/04/30 00:12:22;;;;;;;21.30;6.80;;;6.80;99.90;;;;;;5035872;28;20275;-82
2023/04/30 00:14:48;;;;;;;14.63;6.60;;;6.70;99.90;;;;;;5034589;28;20183;-83
2023/04/30 00:17:14;;;;;;;13.57;6.50;;;6.70;99.90;;;;;;5034767;28;20580;-82
2023/04/30 00:19:40;;;;;;;13.40;5.93;;;6.70;99.90;;;;;;5034405;28;20645;-83
2023/04/30 00:22:06;;;;;;;13.43;7.00;;;6.70;99.90;;;;;;5051170;28;20295;-82
2023/04/30 00:24:32;;;;;;;17.70;6.63;;;6.70;99.90;;;;;;5017917;28;20196;-84
2023/04/30 00:26:58;;;;;;;25.40;7.27;;;6.70;99.90;;;;;;5034958;28;20242;-82
2023/04/30 00:29:23;;;;;;;20.20;7.23;;;5.10;99.90;;;;;;5034598;28;20188;-82
2023/04/30 00:31:49;;;;;;;10.73;7.13;;;6.80;99.90;;;;;;5034192;28;20185;-81
2023/04/30 00:34:15;;;;;;;14.40;7.40;;;6.80;99.90;;;;;;5050631;28;20225;-82
2023/04/30 00:36:40;;;;;;;14.63;7.20;;;6.80;99.90;;;;;;5050933;28;20176;-81
2023/04/30 00:39:06;;;;;;;12.73;6.97;;;;;;;;;;5034804;28;20554;-83
2023/04/30 00:41:34;;;;;;;16.23;7.43;;;6.90;99.90;;;;;;5034386;28;20239;-83
2023/04/30 00:44:01;;;;;;;16.00;7.63;;;6.90;99.90;;;;;;5034537;28;20185;-82
2023/04/30 00:46:27;;;;;;;13.47;6.80;;;6.90;99.90;;;;;;5034346;28;20554;-83
2023/04/30 00:48:53;;;;;;;13.63;7.20;;;7.00;99.90;;;;;;5033974;28;20189;-83
2023/04/30 00:51:19;;;;;;;14.40;7.23;;;6.70;99.90;;;;;;5035575;28;20674;-82
2023/04/30 00:53:45;;;;;;;13.70;6.43;;;7.00;99.90;;;;;;5033933;28;20219;-83
2023/04/30 00:56:15;;;;;;;12.23;6.77;;;7.00;99.90;;;;;;5035770;28;20180;-83
2023/04/30 00:58:40;;;;;;;15.50;6.73;;;7.00;99.90;;;;;;5033758;28;20191;-84
2023/04/30 01:01:06;;;;;;;12.77;5.87;;;7.00;99.90;;;;;;5035177;28;20176;-83
2023/04/30 01:03:34;;;;;;;15.60;6.50;;;7.00;99.90;;;;;;5050743;28;20517;-83
2023/04/30 01:06:00;;;;;;;16.50;6.43;;;7.30;99.90;;;;;;5033657;28;20283;-83
2023/04/30 01:08:26;;;;;;;11.77;5.83;;;7.10;99.90;;;;;;5049648;28;20259;-84
2023/04/30 01:11:16;;;;;;;13.57;5.73;;;7.10;99.90;;;;;;5033377;28;20639;-83
2023/04/30 01:14:20;;;;;;;11.80;6.03;;;7.10;99.90;;;;;;5034925;28;20634;-84
2023/04/30 01:16:51;;;;;;;13.60;7.10;;;7.10;99.90;;;;;;5034598;28;20522;-83
2023/04/30 01:19:41;;;;;;;11.20;6.13;;;7.10;99.90;;;;;;5034019;28;20184;-84
2023/04/30 01:22:13;;;;;;;12.27;7.00;;;7.10;99.90;;;;;;5050407;28;20208;-84
2023/04/30 01:25:02;;;;;;;14.60;6.80;;;7.10;99.90;;;;;;5034955;28;20165;-83
2023/04/30 01:27:55;;;;;;;10.13;5.23;;;7.10;99.90;;;;;;5034815;28;20177;-83
2023/04/30 01:30:22;;;;;;;16.87;6.23;;;7.20;99.90;;;;;;5033656;28;20187;-83
2023/04/30 01:32:48;;;;;;;14.60;6.27;;;7.20;99.90;;;;;;5034240;28;20169;-83
2023/04/30 01:35:15;;;;;;;17.57;6.63;;;7.20;99.90;;;;;;5049634;28;20236;-83
2023/04/30 01:37:58;;;;;;;15.63;6.97;;;7.20;99.90;;;;;;5034626;28;20176;-84
2023/04/30 01:40:41;;;;;;;13.87;6.33;;;7.30;99.90;;;;;;5034700;28;20192;-83
2023/04/30 01:43:19;;;;;;;12.27;5.60;;;7.30;99.90;;;;;;5034047;28;20254;-83
2023/04/30 01:45:57;;;;;;;14.37;6.80;;;7.30;99.90;;;;;;5034053;28;20534;-83
2023/04/30 01:48:29;;;;;;;11.67;6.13;;;7.40;99.90;;;;;;5033318;28;20231;-83
2023/04/30 01:51:08;;;;;;;15.93;6.50;;;7.40;99.90;;;;;;5032882;28;20660;-83
2023/04/30 01:53:41;;;;;;;24.60;6.97;;;7.40;99.90;;;;;;5034333;28;20264;-83
2023/04/30 01:56:11;;;;;;;15.47;7.43;;;7.50;99.90;;;;;;5033028;28;20195;-83
2023/04/30 01:58:38;;;;;;;16.87;7.20;;;7.50;99.90;;;;;;5035033;28;20228;-83
2023/04/30 02:01:04;;;;;;;11.40;6.83;;;7.50;99.90;;;;;;5033716;28;20188;-83
2023/04/30 02:03:31;;;;;;;15.10;6.00;;;7.60;99.90;;;;;;5032815;28;20220;-84
2023/04/30 02:05:58;;;;;;;13.37;7.47;;;7.60;99.90;;;;;;5032561;28;20219;-83
2023/04/30 02:08:24;;;;;;;12.97;6.53;;;7.60;99.90;;;;;;5016499;28;20192;-83
2023/04/30 02:10:49;;;;;;;13.53;7.07;;;7.70;99.90;;;;;;5033799;28;20592;-84
2023/04/30 02:13:16;;;;;;;13.33;8.37;;;7.70;99.90;;;;;;5049511;28;20303;-83
2023/04/30 02:15:41;;;;;;;20.77;7.13;;;7.70;99.90;;;;;;5032500;28;20184;-84
2023/04/30 02:18:07;;;;;;;17.57;7.50;;;7.70;99.90;;;;;;5032044;28;20189;-83
2023/04/30 02:20:35;;;;;;;19.17;7.00;;;7.70;99.90;;;;;;5033064;28;20194;-84
2023/04/30 02:23:01;;;;;;;12.37;6.40;;;7.70;99.90;;;;;;5048708;28;20216;-83
2023/04/30 02:25:27;;;;;;;17.97;7.60;;;7.80;99.90;;;;;;5032554;28;20184;-84
2023/04/30 02:27:52;;;;;;;15.40;6.97;;;7.80;99.90;;;;;;5048780;28;20264;-84
2023/04/30 02:30:19;;;;;;;9.87;6.53;;;7.80;99.90;;;;;;5048777;28;20645;-84
2023/04/30 02:32:45;;;;;;;12.60;6.90;;;7.80;99.90;;;;;;5032268;28;20223;-84
2023/04/30 02:35:11;;;;;;;12.40;7.30;;;7.80;99.90;;;;;;5031851;28;20307;-83
2023/04/30 02:37:36;;;;;;;14.40;6.60;;;7.80;99.90;;;;;;5048879;28;20181;-83
2023/04/30 02:40:02;;;;;;;15.73;6.80;;;7.80;99.90;;;;;;5033009;28;20594;-83
2023/04/30 02:42:28;;;;;;;10.10;5.97;;;7.90;99.90;;;;;;5048939;28;20204;-82
2023/04/30 02:44:53;;;;;;;17.63;6.17;;;7.90;99.90;;;;;;5033215;28;20188;-85
2023/04/30 02:47:19;;;;;;;15.93;6.47;;;7.90;99.90;;;;;;5049435;28;20204;-82
2023/04/30 02:49:44;;;;;;;13.13;6.33;;;8.00;99.90;;;;;;5048705;28;20263;-83
2023/04/30 02:52:10;;;;;;;12.30;5.93;;;7.90;99.90;;;;;;5048455;28;20184;-83
2023/04/30 02:54:36;;;;;;;10.40;6.20;;;8.00;99.90;;;;;;5015843;28;20180;-82
2023/04/30 02:57:02;;;;;;;12.10;6.67;;;8.00;99.90;;;;;;5033176;28;20180;-83
2023/04/30 02:59:27;;;;;;;17.10;6.70;;;8.00;99.90;;;;;;5033993;28;20172;-82
2023/04/30 03:01:53;;;;;;;17.03;6.90;;;8.00;99.90;;;;;;5032537;28;20696;-83
2023/04/30 03:04:19;;;;;;;10.13;6.90;;;8.10;99.90;;;;;;5031513;28;20187;-83
2023/04/30 03:06:44;;;;;;;11.87;6.10;;;8.10;99.90;;;;;;5048963;28;20184;-83
2023/04/30 03:09:10;;;;;;;13.37;6.57;;;8.10;99.90;;;;;;5033610;28;20619;-84
2023/04/30 03:11:36;;;;;;;13.80;6.47;;;7.90;99.90;;;;;;5036249;28;20184;-82
2023/04/30 03:14:03;;;;;;;9.90;6.00;;;8.10;99.90;;;;;;5034812;28;20172;-82
2023/04/30 03:16:29;;;;;;;11.60;5.63;;;8.20;99.90;;;;;;5014077;28;20196;-83
2023/04/30 03:18:56;;;;;;;11.63;6.13;;;8.20;99.90;;;;;;5028816;28;20173;-83
2023/04/30 03:21:21;;;;;;;16.80;7.30;;;8.20;99.90;;;;;;5012949;28;20632;-83
2023/04/30 03:23:47;;;;;;;15.10;6.07;;;8.30;99.90;;;;;;5028581;28;20188;-83
2023/04/30 03:26:13;;;;;;;17.43;7.37;;;8.20;99.90;;;;;;5011473;28;20177;-84
2023/04/30 03:28:39;;;;;;;10.30;5.77;;;8.30;99.90;;;;;;5011986;28;20181;-84
2023/04/30 03:31:06;;;;;;;21.63;7.27;;;8.20;99.90;;;;;;5014763;28;20209;-84
2023/04/30 03:33:32;;;;;;;15.30;7.10;;;8.20;99.90;;;;;;5017177;28;20275;-84
2023/04/30 03:35:58;;;;;;;19.52;7.32;;;8.20;99.90;;;;;;5015917;28;20204;-84
2023/04/30 03:38:23;;;;;;;15.27;7.50;;;8.30;99.90;;;;;;5032191;28;20648;-84
2023/04/30 03:40:49;;;;;;;15.17;7.13;;;8.30;99.90;;;;;;5032433;28;20231;-84
2023/04/30 03:43:15;;;;;;;18.97;6.80;;;8.30;99.90;;;;;;5016736;28;20205;-84
2023/04/30 03:45:40;;;;;;;17.07;6.93;;;8.30;99.90;;;;;;5015454;28;20181;-84
2023/04/30 03:48:06;;;;;;;17.50;7.87;;;8.40;99.90;;;;;;5015402;28;20192;-82
2023/04/30 03:50:32;;;;;;;17.70;8.83;;;8.40;99.90;;;;;;5032327;28;20177;-82
2023/04/30 03:52:57;;;;;;;18.83;8.00;;;8.40;99.90;;;;;;5015599;28;20280;-82
2023/04/30 03:55:23;;;;;;;15.67;7.80;;;8.50;99.90;;;;;;5031831;28;20691;-82
2023/04/30 03:57:50;;;;;;;18.65;8.45;;;8.40;99.90;;;;;;5015437;28;20177;-82
2023/04/30 04:00:16;;;;;;;18.23;7.03;;;8.50;99.90;;;;;;5015143;28;20539;-83
2023/04/30 04:02:42;;;;;;;13.33;5.37;;;8.60;99.90;;;;;;5025695;28;20196;-83
2023/04/30 04:05:08;;;;;;;16.23;4.57;;;8.60;99.90;;;;;;5054817;28;20270;-83
2023/04/30 04:07:33;;;;;;;13.83;4.90;;;8.60;99.90;;;;;;5026881;28;20238;-82
2023/04/30 04:09:59;;;;;;;13.23;3.97;;;8.60;99.90;;;;;;5036234;28;20259;-83
2023/04/30 04:12:25;;;;;;;9.63;4.07;;;8.70;99.90;;;;;;5034623;28;20362;-82
2023/04/30 04:14:51;;;;;;;8.07;3.57;;;8.70;99.90;;;;;;5035126;28;20322;-81
2023/04/30 04:17:17;;;;;;;10.35;4.40;;;;;;;;;;5034277;28;20660;-81
2023/04/30 04:19:43;;;;;;;7.57;3.73;;;8.90;99.90;;;;;;5036147;28;20195;-81
2023/04/30 04:22:08;;;;;;;8.20;3.73;;;9.00;99.90;;;;;;5045296;28;20679;-82
2023/04/30 04:24:34;;;;;;;9.27;4.17;;;9.10;99.90;;;;;;5043993;28;20219;-82
2023/04/30 04:27:01;;;;;;;9.18;3.70;;;9.20;99.90;;;;;;5031552;28;20183;-81
2023/04/30 04:29:27;;;;;;;10.35;4.45;;;9.20;99.90;;;;;;5020505;28;20189;-82
2023/04/30 04:31:54;;;;;;;3.88;2.88;;;9.30;99.90;;;;;;5044878;28;20185;-80
2023/04/30 04:34:20;;;;;;;5.57;3.33;;;9.80;99.90;;;;;;5042783;28;20690;-81
2023/04/30 04:36:46;;;;;;;6.28;3.33;;;9.60;99.90;;;;;;5046617;28;20274;-82
2023/04/30 04:39:12;;;;;;;6.15;4.20;;;9.40;99.90;;;;;;5036828;28;20181;-82
2023/04/30 04:41:38;;;;;;;5.03;3.25;;;9.50;99.90;;;;;;5034524;28;20295;-81
2023/04/30 04:44:04;;;;;;;11.70;3.90;;;9.50;99.90;;;;;;5035425;28;20682;-83
2023/04/30 04:46:30;;;;;;;6.45;3.25;;;9.60;99.90;;;;;;5034465;28;20206;-82
2023/04/30 04:48:59;;;;;;;6.28;2.88;;;9.60;99.90;;;;;;5017967;28;20346;-85
2023/04/30 04:51:25;;;;;;;3.85;2.97;;;9.40;99.90;;;;;;5034307;28;20238;-82
2023/04/30 04:53:51;;;;;;;7.28;3.28;;;10.20;99.90;;;;;;5035346;28;20702;-81
2023/04/30 04:56:17;;;;;;;6.00;3.05;;;9.70;99.90;;;;;;5034089;28;20176;-83
2023/04/30 04:58:44;;;;;;;7.78;3.42;;;9.70;99.90;;;;;;5034027;28;20266;-83
2023/04/30 05:01:10;;;;;;;7.43;3.22;;;9.80;99.90;;;;;;5035213;28;20266;-82
2023/04/30 05:03:38;;;;;;;4.72;2.90;;;9.90;99.90;;;;;;5034952;28;20303;-83
2023/04/30 05:06:04;;;;;;;8.18;3.88;;;9.90;99.90;;;;;;5034299;28;20188;-82
2023/04/30 05:08:30;;;;;;;4.45;2.72;;;10.00;99.90;;;;;;5033909;28;20180;-83
2023/04/30 05:10:56;;;;;;;7.50;2.67;;;10.00;99.90;;;;;;5017654;28;20191;-83
2023/04/30 05:13:22;;;;;;;4.88;2.70;;;10.00;99.90;;;;;;5035331;28;20185;-84
2023/04/30 05:15:51;;;;;;;7.05;3.75;;;10.10;99.90;;;;;;5033967;28;20239;-83
2023/04/30 05:18:17;;;;;;;6.75;3.40;;;10.10;99.90;;;;;;5034547;28;20200;-83
2023/04/30 05:20:43;;;;;;;7.30;3.50;;;10.10;99.90;;;;;;5033972;28;20172;-82
2023/04/30 05:23:09;;;;;;;4.30;3.03;;;10.10;99.90;;;;;;5036354;28;20196;-82
2023/04/30 05:25:35;;;;;;;6.13;2.67;;;10.30;99.90;;;;;;5039705;28;20187;-82
2023/04/30 05:28:02;;;;;;;5.22;3.63;;;10.00;99.90;;;;;;5037469;28;20184;-81
2023/04/30 05:30:28;;;;;;;6.63;3.08;;;10.10;99.90;;;;;;5042149;28;20215;-82
2023/04/30 05:32:55;;;;;;;7.43;3.00;;;10.00;99.90;;;;;;5042834;28;20268;-82
2023/04/30 05:35:20;;;;;;;5.30;2.85;;;10.10;99.90;;;;;;5034829;28;20224;-85
2023/04/30 05:37:46;;;;;;;5.95;3.30;;;10.10;99.90;;;;;;5032648;28;20229;-84
2023/04/30 05:40:12;;;;;;;8.27;3.50;;;10.10;99.90;;;;;;5016113;28;20176;-85
2023/04/30 05:42:39;;;;;;;4.30;3.08;;;10.10;99.90;;;;;;4999780;28;20604;-83
2023/04/30 05:45:06;;;;;;;5.68;3.33;;;10.10;99.90;;;;;;5034153;28;20234;-85
2023/04/30 05:47:32;;;;;;;5.95;3.08;;;10.20;99.90;;;;;;5032394;28;20222;-82
2023/04/30 05:49:57;;;;;;;7.05;4.00;;;10.20;99.90;;;;;;5016081;28;20173;-82
2023/04/30 05:52:23;;;;;;;3.85;2.90;;;10.20;99.90;;;;;;5032354;28;20263;-82
2023/04/30 05:54:49;;;;;;;12.10;3.58;;;10.20;99.90;;;;;;5032721;28;20184;-82
2023/04/30 05:57:15;;;;;;;5.80;3.30;;;10.30;99.90;;;;;;5016098;28;20177;-83
2023/04/30 05:59:40;;;;;;;6.93;3.47;;;10.30;99.90;;;;;;5033231;28;20410;-82
2023/04/30 06:02:06;;;;;;;6.47;3.38;;;10.40;99.90;;;;;;5033567;28;20215;-83
2023/04/30 06:04:32;;;;;;;5.85;3.17;;;10.40;99.90;;;;;;5033515;28;20187;-83
2023/04/30 06:06:58;;;;;;;7.25;4.10;;;10.40;99.90;;;;;;5033406;28;20177;-83
2023/04/30 06:09:23;;;;;;;7.72;4.70;;;10.50;99.90;;;;;;5013398;28;20189;-84
2023/04/30 06:11:50;;;;;;;11.35;4.25;;;10.40;99.90;;;;;;5043223;28;20291;-83
2023/04/30 06:14:17;;;;;;;14.23;4.43;;;8.60;99.90;;;;;;5052287;28;20431;-83
2023/04/30 06:16:46;;;;;;;5.72;3.78;;;10.60;99.90;;;;;;5052960;28;20168;-82
2023/04/30 06:19:12;;;;;;;6.68;4.25;;;10.70;99.90;;;;;;5035427;28;20176;-82
2023/04/30 06:21:38;;;;;;;7.50;4.00;;;10.80;99.90;;;;;;5051291;28;20192;-83
2023/04/30 06:24:04;;;;;;;7.03;4.43;;;10.90;99.90;;;;;;5043445;28;20228;-82
2023/04/30 06:26:30;;;;;;;14.10;4.93;;;11.00;99.90;;;;;;5042161;28;20175;-83
2023/04/30 06:28:56;;;;;;;8.48;5.05;;;11.20;99.90;;;;;;5043300;28;20662;-83
2023/04/30 06:31:23;;;;;;;8.77;4.57;;;11.40;99.90;;;;;;5024013;28;20230;-82
2023/04/30 06:33:49;;;;;;;10.13;5.28;;;11.60;99.90;;;;;;5024141;28;20224;-83
2023/04/30 06:36:15;;;;;;;15.82;6.65;;;11.90;99.90;;;;;;5043380;28;20185;-82
2023/04/30 06:38:41;;;;;;;9.68;5.43;;;12.10;99.90;;;;;;5025485;28;20183;-84
2023/04/30 06:41:08;;;;;;;10.85;5.63;;;12.40;99.90;;;;;;5039857;28;20203;-82
2023/04/30 06:43:33;;;;;;;11.68;6.40;;;12.60;99.90;;;;;;5042522;28;20209;-80
2023/04/30 06:45:59;;;;;;;13.30;7.80;;;12.70;99.90;;;;;;5040152;28;20180;-82
2023/04/30 06:48:25;;;;;;;16.90;7.70;;;12.80;99.90;;;;;;5017101;28;20551;-82
2023/04/30 06:50:51;;;;;;;16.25;8.52;;;13.00;99.90;;;;;;5038251;28;20184;-82
2023/04/30 06:53:16;;;;;;;15.73;9.13;;;13.10;99.90;;;;;;5045662;28;20745;-83
2023/04/30 06:55:47;;;;;;;17.60;9.70;;;13.20;99.90;;;;;;5051266;28;20623;-82
2023/04/30 06:58:13;;;;;;;18.35;8.90;;;13.00;99.90;;;;;;5052559;28;20165;-84
2023/04/30 07:00:38;;;;;;;19.30;9.40;;;12.90;99.90;;;;;;5052218;28;20198;-83
2023/04/30 07:03:04;;;;;;;15.43;8.35;;;13.00;99.90;;;;;;5051059;28;20246;-83
2023/04/30 07:05:30;;;;;;;18.40;9.52;;;13.10;99.90;;;;;;5051096;28;20194;-83
2023/04/30 07:08:02;;;;;;;19.05;9.38;;;13.10;99.90;;;;;;5050999;28;20175;-83
2023/04/30 07:10:28;;;;;;;17.52;10.13;;;13.10;99.90;;;;;;5041565;28;20181;-83
2023/04/30 07:12:54;;;;;;;18.08;10.07;;;12.90;99.90;;;;;;5014397;28;20539;-83
2023/04/30 07:15:20;;;;;;;14.77;8.73;;;12.80;99.90;;;;;;5032322;28;20176;-83
2023/04/30 07:17:45;;;;;;;19.92;9.93;;;12.70;99.90;;;;;;5014132;28;20530;-82
2023/04/30 07:20:13;;;;;;;20.42;9.90;;;12.50;99.90;;;;;;5016821;28;20212;-83
2023/04/30 07:22:39;;;;;;;30.27;10.57;;;12.50;99.90;;;;;;5050580;28;20210;-84
2023/04/30 07:25:06;;;;;;;16.60;9.85;;;12.30;99.90;;;;;;5051157;28;20184;-85
2023/04/30 07:27:32;;;;;;;18.35;11.10;;;12.40;99.90;;;;;;5052169;28;20619;-84
2023/04/30 07:29:57;;;;;;;21.30;11.55;;;12.30;99.90;;;;;;5051097;28;20172;-84
2023/04/30 07:32:25;;;;;;;25.17;12.10;;;12.40;99.90;;;;;;5050931;28;20198;-83
2023/04/30 07:34:52;;;;;;;17.08;9.77;;;12.30;99.90;;;;;;5051834;28;20223;-85
2023/04/30 07:37:18;;;;;;;21.42;11.73;;;12.40;99.90;;;;;;5050904;28;20287;-84
2023/04/30 07:39:43;;;;;;;19.20;10.20;;;12.40;99.90;;;;;;5051570;28;20250;-84
2023/04/30 07:42:09;;;;;;;21.65;10.85;;;12.30;99.90;;;;;;5040863;28;20208;-84
2023/04/30 07:44:35;;;;;;;16.90;10.18;;;13.40;99.90;;;;;;5013006;28;20182;-82
2023/04/30 07:47:00;;;;;;;16.90;10.05;;;12.10;99.90;;;;;;5011613;28;20195;-85
2023/04/30 07:49:26;;;;;;;20.95;10.70;;;12.00;99.90;;;;;;5013060;28;20542;-82
2023/04/30 07:51:52;;;;;;;19.48;11.15;;;12.00;99.90;;;;;;5012784;28;20695;-83
2023/04/30 07:54:18;;;;;;;21.02;11.88;;;12.00;99.90;;;;;;5013081;28;20181;-82
2023/04/30 07:56:43;;;;;;;22.63;11.73;;;11.90;99.90;;;;;;5011513;28;20181;-81
2023/04/30 07:59:09;;;;;;;22.23;11.55;;;11.90;99.90;;;;;;5013075;28;20304;-83
2023/04/30 08:01:35;;;;;;;25.00;12.40;;;11.80;99.90;;;;;;5012783;28;20188;-84
2023/04/30 08:04:00;;;;;;;23.17;12.27;;;11.80;99.90;;;;;;5012161;28;20648;-82
2023/04/30 08:06:26;;;;;;;23.98;12.40;;;11.70;99.90;;;;;;5012205;28;20263;-83
2023/04/30 08:08:52;;;;;;;22.60;12.15;;;11.70;99.90;;;;;;5011744;28;20174;-86
2023/04/30 08:11:18;;;;;;;19.83;11.82;;;11.60;99.90;;;;;;5011533;28;20193;-86
2023/04/30 08:13:44;;;;;;;19.42;11.68;;;11.40;99.90;;;;;;5012676;28;20174;-85
2023/04/30 08:16:09;;;;;;;19.13;11.75;;;11.30;99.90;;;;;;5012833;28;20182;-87
2023/04/30 08:18:37;;;;;;;23.38;12.15;;;11.20;99.90;;;;;;5016311;28;20531;-85
2023/04/30 08:21:04;;;;;;;19.70;11.35;;;11.20;99.90;;;;;;5014753;28;20189;-86
2023/04/30 08:23:30;;;;;;;22.27;12.00;;;11.10;99.90;;;;;;5015171;28;20255;-86
2023/04/30 08:25:56;;;;;;;24.63;12.70;;;11.00;99.90;;;;;;5014761;28;20189;-83
2023/04/30 08:28:21;;;;;;;22.35;12.32;;;11.00;99.90;;;;;;5016038;28;20185;-83
2023/04/30 08:30:47;;;;;;;24.17;13.50;;;10.70;99.90;;;;;;5014710;28;20624;-83
2023/04/30 08:33:12;;;;;;;26.25;13.95;;;10.40;99.90;;;;;;5014723;28;20291;-83
2023/04/30 08:35:38;;;;;;;25.50;13.55;;;10.40;99.90;;;;;;4998701;28;20177;-83
2023/04/30 08:38:04;;;;;;;22.70;12.35;;;10.40;99.90;;;;;;5014584;28;20193;-83
2023/04/30 08:40:32;;;;;;;29.40;14.20;;;10.30;99.90;;;;;;4998591;28;20189;-83
2023/04/30 08:43:06;;;;;;;28.65;15.15;;;10.30;99.90;;;;;;4998358;28;20212;-83
2023/04/30 08:45:33;;;;;;;24.25;13.30;;;10.30;99.90;;;;;;5016120;28;20192;-83
2023/04/30 08:47:59;;;;;;;22.85;13.20;;;10.30;99.90;;;;;;5015724;28;20215;-83
2023/04/30 08:50:26;;;;;;;24.77;13.30;;;10.30;99.90;;;;;;5014849;28;20659;-85
2023/04/30 08:52:52;;;;;;;28.98;14.38;;;10.20;99.90;;;;;;5014418;28;20535;-84
2023/04/30 08:55:17;;;;;;;24.65;14.20;;;10.30;99.90;;;;;;5014491;28;20192;-83
2023/04/30 08:57:43;;;;;;;27.00;14.38;;;10.30;99.90;;;;;;5015668;28;20184;-85
2023/04/30 09:00:10;;;;;;;25.20;13.35;;;10.40;99.90;;;;;;4997338;28;20193;-90
2023/04/30 09:02:40;;;;;;;29.13;14.48;;;10.30;99.90;;;;;;5030788;28;20204;-91
2023/04/30 09:05:13;;;;;;;30.40;15.10;;;10.40;99.90;;;;;;5035344;28;20165;-85
2023/04/30 09:07:44;;;;;;;29.25;14.82;;;10.40;99.90;;;;;;5036990;28;20651;-93
2023/04/30 09:10:38;;;;;;;26.75;15.27;;;10.30;99.90;;;;;;5054976;28;20194;-94
2023/04/30 09:13:13;;;;;;;27.90;13.75;;;10.40;99.90;;;;;;5049880;28;20192;-95
2023/04/30 09:15:40;;;;;;;25.90;13.20;;;;;;;;;;5084889;22;20160;-96
2023/04/30 09:18:17;;;;;;;31.67;14.20;;;10.20;99.90;;;;;;5029875;28;20177;-93
2023/04/30 09:21:00;;;;;;;27.35;13.80;;;10.60;99.90;;;;;;5044263;28;20184;-94
2023/04/30 09:23:27;;;;;;;25.10;14.23;;;11.00;99.90;;;;;;5031966;28;20742;-93
2023/04/30 09:25:55;;;;;;;26.98;13.30;;;;;;;;;;5035640;28;20188;-91
2023/04/30 09:28:28;;;;;;;22.98;12.25;;;10.60;99.90;;;;;;5045303;28;20170;-94
2023/04/30 09:31:04;;;;;;;22.40;12.30;;;10.40;99.90;;;;;;5049940;28;20161;-92
2023/04/30 09:33:48;;;;;;;24.80;13.25;;;10.50;99.90;;;;;;5043071;28;20196;-93
2023/04/30 09:36:15;;;;;;;23.55;11.75;;;10.60;99.90;;;;;;5078184;23;20240;-93
2023/04/30 09:38:49;;;;;;;26.05;13.13;;;10.40;99.90;;;;;;5057180;28;20180;-91
2023/04/30 09:41:41;;;;;;;25.92;11.95;;;10.40;99.90;;;;;;5085656;23;20230;-92
2023/04/30 09:44:33;;;;;;;25.92;13.35;;;10.60;99.90;;;;;;5442645;22;20203;-94
2023/04/30 09:47:02;;;;;;;21.90;11.60;;;10.40;99.90;;;;;;5117911;22;20219;-92
2023/04/30 09:49:28;;;;;;;21.95;12.20;;;11.00;99.90;;;;;;5078088;28;20187;-93
2023/04/30 09:52:01;;;;;;;19.30;11.13;;;10.40;99.90;;;;;;5137804;23;20238;-92
2023/04/30 09:54:28;;;;;;;21.08;11.13;;;10.60;99.90;;;;;;5088428;28;20193;-89
2023/04/30 09:56:56;;;;;;;22.30;10.93;;;10.40;99.90;;;;;;5085341;28;20204;-89
2023/04/30 09:59:30;;;;;;;21.38;10.82;;;10.70;99.90;;;;;;5086255;28;20186;-91
2023/04/30 10:02:03;;;;;;;21.05;12.13;;;11.10;99.90;;;;;;5081330;28;20336;-92
2023/04/30 10:04:35;;;;;;;19.52;10.93;;;10.70;99.90;;;;;;5081641;28;20179;-93
2023/04/30 10:07:23;;;;;;;21.80;11.98;;;10.70;99.90;;;;;;5090998;28;20187;-92
2023/04/30 10:10:07;;;;;;;18.35;9.25;;;10.60;99.90;;;;;;5068267;28;20663;-94
2023/04/30 10:12:45;;;;;;;16.90;9.40;;;11.00;99.90;;;;;;5074433;28;20164;-93
2023/04/30 10:15:11;;;;;;;15.73;10.02;;;;;;;;;;5073650;28;20252;-93
2023/04/30 10:17:44;;;;;;;17.88;10.63;;;10.80;99.90;;;;;;5073979;28;20254;-92
2023/04/30 10:20:25;;;;;;;16.20;9.55;;;11.20;99.90;;;;;;5073913;28;20240;-92
2023/04/30 10:22:54;;;;;;;19.98;9.85;;;10.90;99.90;;;;;;5074212;28;20193;-92
2023/04/30 10:25:22;;;;;;;17.95;9.73;;;;;;;;;;5071516;28;20175;-91
2023/04/30 10:28:01;;;;;;;16.20;9.27;;;11.00;99.90;;;;;;5074270;28;20265;-94
2023/04/30 10:30:33;;;;;;;16.52;9.23;;;;;;;;;;5074080;28;20336;-93
2023/04/30 10:37:03;;;;;;;;;;;;;;;;;;;;;
2023/04/30 10:39:37;;;;;;;15.77;8.55;;;10.60;99.90;;;;;;5074751;28;20167;-92
2023/04/30 10:42:07;;;;;;;13.65;7.47;;;10.90;99.90;;;;;;5075212;28;20653;-92
2023/04/30 10:44:38;;;;;;;12.88;6.68;;;10.90;99.90;;;;;;5072492;28;20175;-91
2023/04/30 10:47:07;;;;;;;17.63;9.50;;;11.20;99.90;;;;;;5072139;28;20179;-94
2023/04/30 10:49:36;;;;;;;9.10;6.13;;;11.70;99.90;;;;;;5072142;28;20209;-90
2023/04/30 10:52:04;;;;;;;11.18;5.97;;;11.70;99.90;;;;;;5084186;28;20744;-95
2023/04/30 10:54:50;;;;;;;;;;;;;;;;;;;;;
2023/04/30 10:57:23;;;;;;;8.98;5.25;;;11.40;99.90;;;;;;5092812;28;20159;-91
2023/04/30 11:00:07;;;;;;;8.48;5.30;;;12.30;99.90;;;;;;5075218;28;20170;-90
2023/04/30 11:03:41;;;;;;;10.15;5.93;;;12.70;99.90;;;;;;5096204;28;20213;-89
2023/04/30 11:06:14;;;;;;;10.75;6.15;;;13.00;99.90;;;;;;5068637;28;20182;-91
2023/04/30 11:08:50;;;;;;;11.40;6.47;;;12.60;99.90;;;;;;5079992;28;20192;-93
2023/04/30 11:11:22;;;;;;;7.72;4.97;;;12.90;99.90;;;;;;5059446;28;20192;-88
2023/04/30 11:13:59;;;;;;;8.18;5.07;;;13.10;99.90;;;;;;5074686;28;20644;-89
2023/04/30 11:16:33;;;;;;;9.23;4.90;;;13.20;99.90;;;;;;5072982;28;20263;-88
2023/04/30 11:19:12;;;;;;;6.75;4.25;;;13.30;99.90;;;;;;5076867;28;20628;-93
2023/04/30 11:22:00;;;;;;;6.30;4.65;;;13.20;99.90;;;;;;5092714;28;20158;-91
2023/04/30 11:25:12;;;;;;;7.72;3.95;;;13.10;99.90;;;;;;5061249;28;20178;-89
2023/04/30 11:27:48;;;;;;;8.60;4.57;;;12.60;99.90;;;;;;5105826;28;20171;-86
2023/04/30 11:30:20;;;;;;;9.55;4.40;;;14.10;99.90;;;;;;5075052;28;20167;-88
2023/04/30 11:32:49;;;;;;;5.97;3.63;;;14.20;99.90;;;;;;5096519;28;20174;-93
2023/04/30 11:35:18;;;;;;;6.53;4.30;;;13.90;99.90;;;;;;5080176;28;20692;-90
2023/04/30 11:37:44;;;;;;;9.50;4.25;;;13.90;99.90;;;;;;5095139;28;20668;-86
2023/04/30 11:40:13;;;;;;;5.50;3.60;;;14.00;99.90;;;;;;5093723;28;20197;-88
2023/04/30 11:42:42;;;;;;;7.15;4.00;;;14.10;99.90;;;;;;5076168;28;20613;-90
2023/04/30 11:45:16;;;;;;;5.22;3.80;;;14.30;99.90;;;;;;5075246;28;20179;-89
2023/04/30 11:48:01;;;;;;;5.90;3.97;;;14.70;99.90;;;;;;5059250;28;20632;-89
2023/04/30 11:50:32;;;;;;;7.35;3.80;;;15.50;99.90;;;;;;5074682;28;20637;-88
2023/04/30 11:53:02;;;;;;;7.28;3.78;;;15.10;99.90;;;;;;5096636;28;20244;-90
2023/04/30 11:55:27;;;;;;;10.27;4.00;;;14.90;99.90;;;;;;5086854;28;20557;-90
2023/04/30 11:57:55;;;;;;;9.80;3.55;;;14.70;99.90;;;;;;5067316;28;20267;-90
2023/04/30 12:00:26;;;;;;;5.47;3.45;;;14.60;99.90;;;;;;5081442;28;20266;-92
2023/04/30 12:02:52;;;;;;;5.68;3.30;;;14.50;99.90;;;;;;5091297;28;20213;-91
2023/04/30 12:05:26;;;;;;;4.30;3.38;;;14.30;99.90;;;;;;5085772;28;20269;-91
2023/04/30 12:08:08;;;;;;;5.50;2.85;;;14.40;99.90;;;;;;5113833;28;20193;-93
2023/04/30 12:10:35;;;;;;;7.15;3.25;;;14.40;99.90;;;;;;5082285;28;20167;-92
2023/04/30 12:13:01;;;;;;;6.75;2.95;;;14.40;99.90;;;;;;5081772;28;20594;-87
2023/04/30 12:15:27;;;;;;;7.53;3.45;;;14.70;98.70;;;;;;5062392;28;20178;-89
2023/04/30 12:18:12;;;;;;;5.50;2.67;;;14.20;97.90;;;;;;5082696;28;20171;-91
2023/04/30 12:20:39;;;;;;;5.47;3.10;;;14.30;98.50;;;;;;5078295;28;20175;-90
2023/04/30 12:23:06;;;;;;;5.10;2.50;;;14.70;98.10;;;;;;5079152;28;20206;-93
2023/04/30 12:25:42;;;;;;;4.10;2.22;;;15.20;97.30;;;;;;5078867;28;20214;-94
2023/04/30 12:28:09;;;;;;;3.60;2.83;;;15.50;94.00;;;;;;5082406;28;20182;-92
2023/04/30 12:30:35;;;;;;;8.90;2.83;;;15.60;92.80;;;;;;5062443;28;20274;-94
2023/04/30 12:33:02;;;;;;;4.90;2.08;;;15.50;92.20;;;;;;5079556;28;20217;-89
2023/04/30 12:35:32;;;;;;;6.25;3.17;;;15.40;92.50;;;;;;5079409;28;20231;-89
2023/04/30 12:38:07;;;;;;;5.13;3.35;;;15.20;92.10;;;;;;5079393;28;20189;-91
2023/04/30 12:40:32;;;;;;;2.90;2.03;;;15.00;91.50;;;;;;5082170;28;20185;-95
2023/04/30 12:43:06;;;;;;;3.83;2.08;;;15.00;91.00;;;;;;5054086;28;20569;-87
2023/04/30 12:45:47;;;;;;;6.35;2.90;;;15.00;90.50;;;;;;5087145;28;20261;-87
2023/04/30 12:48:14;;;;;;;3.30;2.13;;;15.00;90.50;;;;;;5079689;28;20174;-88
2023/04/30 12:50:40;;;;;;;5.00;2.58;;;15.00;91.10;;;;;;5098720;28;20174;-92
2023/04/30 12:53:06;;;;;;;3.88;2.75;;;14.70;91.50;;;;;;5083014;28;20242;-88
2023/04/30 12:55:34;;;;;;;6.50;3.35;;;14.50;91.50;;;;;;5097087;28;20183;-90
2023/04/30 12:58:10;;;;;;;5.20;2.88;;;14.40;91.20;;;;;;5097760;28;20198;-85